createdAt,value
2023-02-26T00:02:22.966Z,5.19
2023-02-26T00:04:52.527Z,5.12
2023-02-26T00:07:21.836Z,5.17
2023-02-26T00:09:51.317Z,4.63
2023-02-26T00:12:21.088Z,4.96
2023-02-26T00:14:53.812Z,4.58
2023-02-26T00:17:46.571Z,4.77
2023-02-26T00:20:16.979Z,4.49
2023-02-26T00:22:47.248Z,4.75
2023-02-26T00:25:17.074Z,4.70
2023-02-26T00:27:46.960Z,4.94
2023-02-26T00:30:18.706Z,5.16
2023-02-26T00:32:48.720Z,5.36
2023-02-26T00:35:18.966Z,5.26
2023-02-26T00:38:01.682Z,5.44
2023-02-26T00:40:44.223Z,5.20
2023-02-26T00:43:18.330Z,4.96
2023-02-26T00:45:57.809Z,4.89
2023-02-26T00:48:46.393Z,4.86
2023-02-26T00:51:24.812Z,5.30
2023-02-26T00:54:02.231Z,5.38
2023-02-26T00:56:31.828Z,5.42
2023-02-26T00:59:01.243Z,5.17
2023-02-26T01:01:33.146Z,5.34
2023-02-26T01:04:03.118Z,5.19
2023-02-26T01:06:35.762Z,5.11
2023-02-26T01:09:12.741Z,5.11
2023-02-26T01:11:42.966Z,5.07
2023-02-26T01:14:12.846Z,5.11
2023-02-26T01:16:54.859Z,5.82
2023-02-26T01:19:32.450Z,5.68
2023-02-26T01:22:08.732Z,5.39
2023-02-26T01:24:39.174Z,5.35
2023-02-26T01:27:09.460Z,5.12
2023-02-26T01:29:39.158Z,4.50
2023-02-26T01:32:17.388Z,4.77
2023-02-26T01:34:55.733Z,5.11
2023-02-26T01:37:31.647Z,4.91
2023-02-26T01:40:22.630Z,5.10
2023-02-26T01:42:55.548Z,5.15
2023-02-26T01:45:32.802Z,5.11
2023-02-26T01:48:12.675Z,4.91
2023-02-26T01:50:42.387Z,5.09
2023-02-26T01:53:24.349Z,4.71
2023-02-26T01:55:58.026Z,4.72
2023-02-26T01:58:32.288Z,4.40
2023-02-26T02:01:02.106Z,4.45
2023-02-26T02:03:38.376Z,4.37
2023-02-26T02:06:10.645Z,4.19
2023-02-26T02:08:40.397Z,4.76
2023-02-26T02:11:12.449Z,4.90
2023-02-26T02:14:00.667Z,4.98
2023-02-26T02:16:38.956Z,5.07
2023-02-26T02:19:35.197Z,5.02
2023-02-26T02:22:30.112Z,5.09
2023-02-26T02:25:16.360Z,188.43
2023-02-26T02:28:53.749Z,-140.87
2023-02-26T02:32:29.737Z,-140.87
2023-02-26T02:36:04.811Z,-140.87
2023-02-26T02:39:36.294Z,-140.87
2023-02-26T02:43:08.638Z,-140.87
2023-02-26T02:46:43.025Z,-140.87
2023-02-26T02:50:15.837Z,-140.87
2023-02-26T02:53:47.270Z,-140.87
2023-02-26T02:57:21.463Z,-140.87
2023-02-26T03:00:52.505Z,-140.87
2023-02-26T03:04:25.780Z,-140.87
2023-02-26T03:07:55.806Z,-140.87
2023-02-26T03:11:23.668Z,-140.87
2023-02-26T03:14:52.639Z,-140.87
2023-02-26T03:18:29.559Z,-140.87
2023-02-26T03:22:06.271Z,-140.87
2023-02-26T03:25:58.140Z,-140.87
2023-02-26T03:29:34.169Z,-140.87
2023-02-26T03:34:26.922Z,-140.87
2023-02-26T03:38:01.779Z,-140.87
2023-02-26T03:41:34.438Z,-140.87
2023-02-26T03:45:08.555Z,-140.87
2023-02-26T03:48:37.917Z,-140.87
2023-02-26T03:52:09.863Z,-140.87
2023-02-26T03:56:01.572Z,-140.87
2023-02-26T03:59:50.188Z,-140.87
2023-02-26T04:03:44.736Z,-140.87
2023-02-26T04:07:16.030Z,-140.87
2023-02-26T04:10:46.404Z,-140.87
2023-02-26T04:14:14.676Z,-140.87
2023-02-26T04:17:44.398Z,-140.87
2023-02-26T04:21:13.130Z,-140.87
2023-02-26T04:24:42.589Z,-140.87
2023-02-26T04:28:11.282Z,-140.87
2023-02-26T04:31:39.409Z,-140.87
2023-02-26T04:35:08.361Z,-140.87
2023-02-26T04:38:36.207Z,-140.87
2023-02-26T04:42:07.972Z,-140.87
2023-02-26T04:45:36.033Z,-140.87
2023-02-26T04:49:04.982Z,-140.87
2023-02-26T04:52:32.904Z,-140.87
2023-02-26T04:56:01.202Z,-140.87
2023-02-26T04:59:30.364Z,-140.87
2023-02-26T05:02:59.148Z,-140.87
2023-02-26T05:06:27.341Z,-140.87
2023-02-26T05:09:55.602Z,-140.87
2023-02-26T05:13:23.470Z,-140.87
2023-02-26T05:16:53.727Z,-140.87
2023-02-26T05:20:21.743Z,-140.87
2023-02-26T05:23:49.895Z,-140.87
2023-02-26T05:27:18.210Z,-140.87
2023-02-26T05:30:48.342Z,-140.87
2023-02-26T05:34:17.296Z,-140.87
2023-02-26T05:37:45.373Z,-140.87
2023-02-26T05:41:13.524Z,-140.87
2023-02-26T05:44:41.726Z,-140.87
2023-02-26T05:48:11.230Z,-140.87
2023-02-26T05:51:42.861Z,-140.87
2023-02-26T05:55:11.209Z,-140.87
2023-02-26T05:58:39.442Z,-140.87
2023-02-26T06:02:07.046Z,-140.87
2023-02-26T06:05:36.292Z,-140.87
2023-02-26T06:09:05.987Z,-140.87
2023-02-26T06:12:33.995Z,-140.87
2023-02-26T06:16:01.815Z,-140.87
2023-02-26T06:19:30.008Z,-140.87
2023-02-26T06:22:57.841Z,-140.87
2023-02-26T06:26:27.773Z,-140.87
2023-02-26T06:29:55.721Z,-140.87
2023-02-26T06:33:24.382Z,-140.87
2023-02-26T06:36:52.682Z,-140.87
2023-02-26T06:40:21.110Z,-140.87
2023-02-26T06:43:50.257Z,-140.87
2023-02-26T06:47:18.479Z,-140.87
2023-02-26T06:50:46.171Z,-140.87
2023-02-26T06:54:14.319Z,-140.87
2023-02-26T06:57:42.200Z,-140.87
2023-02-26T07:01:12.531Z,-140.87
2023-02-26T07:04:40.410Z,-140.87
2023-02-26T07:08:08.788Z,-140.87
2023-02-26T07:11:37.333Z,-140.87
2023-02-26T07:15:05.762Z,-140.87
2023-02-26T07:18:35.233Z,-140.87
2023-02-26T07:22:03.711Z,-140.87
2023-02-26T07:25:31.560Z,-140.87
2023-02-26T07:28:59.724Z,-140.87
2023-02-26T07:32:27.687Z,-140.87
2023-02-26T07:35:57.180Z,-140.87
2023-02-26T07:39:25.004Z,-140.87
2023-02-26T07:42:53.140Z,-140.87
2023-02-26T07:46:20.879Z,-140.87
2023-02-26T07:49:49.104Z,-140.87
2023-02-26T07:53:18.253Z,-140.87
2023-02-26T07:56:46.560Z,-140.87
2023-02-26T08:00:14.792Z,-140.87
2023-02-26T08:03:43.039Z,-140.87
2023-02-26T08:07:10.874Z,-140.87
2023-02-26T08:10:42.259Z,-140.87
2023-02-26T08:14:10.887Z,-140.87
2023-02-26T08:17:38.978Z,-140.87
2023-02-26T08:21:07.623Z,-140.87
2023-02-26T08:24:36.019Z,-140.87
2023-02-26T08:28:04.895Z,-140.87
2023-02-26T08:31:34.638Z,-140.87
2023-02-26T08:35:02.591Z,-140.87
2023-02-26T08:38:30.889Z,-140.87
2023-02-26T08:41:58.392Z,-140.87
2023-02-26T08:45:28.148Z,-140.87
2023-02-26T08:48:55.825Z,-140.87
2023-02-26T08:52:24.134Z,-140.87
2023-02-26T08:55:52.092Z,-140.87
2023-02-26T08:59:20.621Z,-140.87
2023-02-26T09:02:49.929Z,-140.87
2023-02-26T09:06:18.372Z,-140.87
2023-02-26T09:09:46.135Z,-140.87
2023-02-26T09:13:14.697Z,-140.87
2023-02-26T09:16:43.790Z,-140.87
2023-02-26T09:20:14.725Z,-140.87
2023-02-26T09:23:42.451Z,-140.87
2023-02-26T09:27:10.670Z,-140.87
2023-02-26T09:30:38.382Z,-140.87
2023-02-26T09:34:06.676Z,-140.87
2023-02-26T09:37:35.683Z,-140.87
2023-02-26T09:41:06.033Z,-140.87
2023-02-26T09:44:49.531Z,-140.87
2023-02-26T09:48:21.847Z,-140.87
2023-02-26T09:51:53.988Z,-140.87
2023-02-26T09:55:29.049Z,-140.87
2023-02-26T09:58:59.318Z,-140.87
2023-02-26T10:02:35.443Z,-140.87
2023-02-26T10:06:14.979Z,-140.87
2023-02-26T10:10:02.522Z,-140.87
2023-02-26T10:13:40.496Z,-140.87
2023-02-26T10:17:20.720Z,-140.87
2023-02-26T10:20:55.590Z,-140.87
2023-02-26T10:24:28.244Z,-140.87
2023-02-26T10:28:02.148Z,-140.87
2023-02-26T10:31:36.915Z,-140.87
2023-02-26T10:35:17.781Z,-140.87
2023-02-26T10:38:51.192Z,-140.87
2023-02-26T10:42:24.530Z,-140.87
2023-02-26T10:46:05.798Z,-140.87
2023-02-26T10:49:52.651Z,-140.87
2023-02-26T10:53:22.680Z,-140.87
2023-02-26T10:56:52.134Z,-140.87
2023-02-26T11:00:22.619Z,-140.87
2023-02-26T11:03:52.842Z,-140.87
2023-02-26T11:07:24.236Z,-140.87
2023-02-26T11:10:53.780Z,-140.87
2023-02-26T11:14:26.829Z,-140.87
2023-02-26T11:17:58.742Z,-140.87
2023-02-26T11:21:31.393Z,-140.87
2023-02-26T11:25:15.266Z,-140.87
2023-02-26T11:28:45.324Z,-140.87
2023-02-26T11:32:19.001Z,-140.87
2023-02-26T11:35:48.256Z,-140.87
2023-02-26T11:39:20.683Z,-140.87
2023-02-26T11:42:50.847Z,-140.87
2023-02-26T11:46:25.536Z,-140.87
2023-02-26T11:49:55.769Z,-140.87
2023-02-26T11:53:37.281Z,-140.87
2023-02-26T11:57:16.680Z,-140.87
2023-02-26T12:00:46.652Z,-140.87
2023-02-26T12:04:20.099Z,-140.87
2023-02-26T12:07:50.836Z,-140.87
2023-02-26T12:11:36.970Z,-140.87
2023-02-26T12:15:19.257Z,-140.87
2023-02-26T12:19:01.254Z,-140.87
2023-02-26T12:22:42.773Z,-140.87
2023-02-26T12:26:28.456Z,-140.87
2023-02-26T12:30:21.396Z,-140.87
2023-02-26T12:34:15.539Z,-140.87
2023-02-26T12:37:55.670Z,-140.87
2023-02-26T12:41:40.680Z,-140.87
2023-02-26T12:45:39.340Z,-140.87
2023-02-26T12:49:27.175Z,-140.87
2023-02-26T12:53:14.506Z,-140.87
2023-02-26T12:57:01.422Z,-140.87
2023-02-26T13:00:53.941Z,-140.87
2023-02-26T13:04:57.768Z,-140.87
2023-02-26T13:08:55.676Z,-140.87
2023-02-26T13:12:34.567Z,-140.87
2023-02-26T13:16:15.383Z,-140.87
2023-02-26T13:19:49.732Z,-140.87
2023-02-26T13:23:24.967Z,-140.87
2023-02-26T13:26:57.499Z,-140.87
2023-02-26T13:30:29.170Z,-140.87
2023-02-26T13:33:59.512Z,-140.87
2023-02-26T13:37:30.557Z,-140.87
2023-02-26T13:41:17.764Z,-140.87
2023-02-26T13:44:55.975Z,-140.87
2023-02-26T13:48:39.696Z,-140.87
2023-02-26T13:52:23.240Z,-140.87
2023-02-26T13:55:53.743Z,-140.87
2023-02-26T13:59:37.707Z,-140.87
2023-02-26T14:03:32.180Z,-140.87
2023-02-26T14:07:12.585Z,-140.87
2023-02-26T14:10:54.732Z,-140.87
2023-02-26T14:14:26.620Z,-140.87
2023-02-26T14:18:01.969Z,-140.87
2023-02-26T14:21:41.224Z,-140.87
2023-02-26T14:25:18.668Z,-140.87
2023-02-26T14:28:58.237Z,-140.87
2023-02-26T14:32:28.924Z,-140.87
2023-02-26T14:35:59.354Z,-140.87
2023-02-26T14:39:33.725Z,-140.87
2023-02-26T14:43:06.421Z,-140.87
2023-02-26T14:46:37.744Z,-140.87
2023-02-26T14:50:08.303Z,-140.87
2023-02-26T14:54:05.172Z,-140.87
2023-02-26T14:57:41.183Z,-140.87
2023-02-26T15:01:36.355Z,-140.87
2023-02-26T15:05:30.563Z,-140.87
2023-02-26T15:09:13.185Z,-140.87
2023-02-26T15:13:03.859Z,-140.87
2023-02-26T15:16:43.432Z,-140.87
2023-02-26T15:20:21.573Z,-140.87
2023-02-26T15:23:58.461Z,-140.87
2023-02-26T15:27:31.419Z,-140.87
2023-02-26T15:31:01.233Z,-140.87
2023-02-26T15:34:33.522Z,-140.87
2023-02-26T15:38:02.717Z,-140.87
2023-02-26T15:41:33.848Z,-140.87
2023-02-26T15:45:06.107Z,-140.87
2023-02-26T15:48:37.505Z,-140.87
2023-02-26T15:52:08.119Z,-140.87
2023-02-26T15:55:46.340Z,-140.87
2023-02-26T15:59:18.814Z,-140.87
2023-02-26T16:02:46.653Z,-140.87
2023-02-26T16:06:18.003Z,-140.87
2023-02-26T16:09:47.341Z,-140.87
2023-02-26T16:13:21.572Z,-140.87
2023-02-26T16:16:50.662Z,-140.87
2023-02-26T16:20:24.223Z,-140.87
2023-02-26T16:23:57.890Z,-140.87
2023-02-26T16:27:30.922Z,-140.87
2023-02-26T16:31:01.267Z,-140.87
2023-02-26T16:34:37.502Z,-140.87
2023-02-26T16:38:20.593Z,-140.87
2023-02-26T16:42:10.921Z,-140.87
2023-02-26T16:45:52.263Z,-140.87
2023-02-26T16:49:25.034Z,-140.87
2023-02-26T16:52:58.595Z,-140.87
2023-02-26T16:56:28.829Z,-140.87
2023-02-26T17:00:10.048Z,-140.87
2023-02-26T17:03:40.709Z,-140.87
2023-02-26T17:07:17.439Z,-140.87
2023-02-26T17:10:50.047Z,-140.87
2023-02-26T17:14:23.620Z,-140.87
2023-02-26T17:17:56.759Z,-140.87
2023-02-26T17:21:25.902Z,-140.87
2023-02-26T17:24:55.512Z,-140.87
2023-02-26T17:28:28.486Z,-140.87
2023-02-26T17:31:56.558Z,-140.87
2023-02-26T17:35:25.458Z,-140.87
2023-02-26T17:38:54.095Z,-140.87
2023-02-26T17:42:24.185Z,-140.87
2023-02-26T17:45:53.545Z,-140.87
2023-02-26T17:49:22.011Z,-140.87
2023-02-26T17:52:49.946Z,-140.87
2023-02-26T17:56:21.447Z,-140.87
2023-02-26T17:59:50.680Z,-140.87
2023-02-26T18:03:21.681Z,-140.87
2023-02-26T18:06:50.085Z,-140.87
2023-02-26T18:10:19.460Z,-140.87
2023-02-26T18:13:47.228Z,-140.87
2023-02-26T18:17:20.841Z,-140.87
2023-02-26T18:20:48.975Z,-140.87
2023-02-26T18:24:17.362Z,-140.87
2023-02-26T18:27:45.287Z,-140.87
2023-02-26T18:31:20.353Z,-140.87
2023-02-26T18:34:49.505Z,-140.87
2023-02-26T18:38:19.933Z,-140.87
2023-02-26T18:41:48.558Z,-140.87
2023-02-26T18:45:17.321Z,-140.87
2023-02-26T18:48:47.408Z,-140.87
2023-02-26T18:52:15.911Z,-140.87
2023-02-26T18:55:43.689Z,-140.87
2023-02-26T18:59:11.803Z,-140.87
2023-02-26T19:02:39.748Z,-140.87
2023-02-26T19:06:11.717Z,-140.87
2023-02-26T19:09:39.615Z,-140.87
2023-02-26T19:13:07.881Z,-140.87
2023-02-26T19:16:38.972Z,-140.87
2023-02-26T19:20:08.072Z,-140.87
2023-02-26T19:23:40.891Z,-140.87
2023-02-26T19:27:09.625Z,-140.87
2023-02-26T19:30:39.762Z,-140.87
2023-02-26T19:34:08.885Z,-140.87
2023-02-26T19:37:36.546Z,-140.87
2023-02-26T19:41:06.098Z,-140.87
2023-02-26T19:44:36.534Z,-140.87
2023-02-26T19:48:04.785Z,-140.87
2023-02-26T19:51:34.814Z,-140.87
2023-02-26T19:55:03.146Z,-140.87
2023-02-26T19:58:34.710Z,-140.87
2023-02-26T20:02:04.959Z,-140.87
2023-02-26T20:05:32.959Z,-140.87
2023-02-26T20:09:01.163Z,-140.87
2023-02-26T20:12:30.549Z,-140.87
2023-02-26T20:16:03.339Z,-140.87
2023-02-26T20:19:31.921Z,-140.87
2023-02-26T20:23:00.232Z,-140.87
2023-02-26T20:26:27.901Z,-140.87
2023-02-26T20:29:56.159Z,-140.87
2023-02-26T20:33:25.393Z,-140.87
2023-02-26T20:36:55.621Z,-140.87
2023-02-26T20:40:23.920Z,-140.87
2023-02-26T20:43:52.133Z,-140.87
2023-02-26T20:47:19.874Z,-140.87
2023-02-26T20:50:49.748Z,-140.87
2023-02-26T20:54:17.944Z,-140.87
2023-02-26T20:57:46.057Z,-140.87
2023-02-26T21:01:14.241Z,-140.87
2023-02-26T21:04:42.554Z,-140.87
2023-02-26T21:08:11.664Z,-140.87
2023-02-26T21:11:40.469Z,-140.87
2023-02-26T21:15:10.385Z,-140.87
2023-02-26T21:18:39.081Z,-140.87
2023-02-26T21:22:07.001Z,-140.87
2023-02-26T21:25:36.565Z,-140.87
2023-02-26T21:29:05.045Z,-140.87
2023-02-26T21:32:33.235Z,-140.87
2023-02-26T21:36:00.785Z,-140.87
2023-02-26T21:39:29.364Z,-140.87
2023-02-26T21:42:58.658Z,-140.87
2023-02-26T21:46:26.770Z,-140.87
2023-02-26T21:49:54.600Z,-140.87
2023-02-26T21:53:22.902Z,-140.87
2023-02-26T21:56:50.363Z,-140.87
2023-02-26T22:00:20.616Z,-140.87
2023-02-26T22:03:48.495Z,-140.87
2023-02-26T22:07:16.535Z,-140.87
2023-02-26T22:10:45.604Z,-140.87
2023-02-26T22:14:13.756Z,-140.87
2023-02-26T22:17:42.945Z,-140.87
2023-02-26T22:21:11.643Z,-140.87
2023-02-26T22:24:41.041Z,-140.87
2023-02-26T22:28:09.348Z,-140.87
2023-02-26T22:31:37.044Z,-140.87
2023-02-26T22:35:06.990Z,-140.87
2023-02-26T22:38:34.673Z,-140.87
2023-02-26T22:42:02.739Z,-140.87
2023-02-26T22:45:30.536Z,-140.87
2023-02-26T22:48:58.584Z,-140.87
2023-02-26T22:52:27.626Z,-140.87
2023-02-26T22:55:55.828Z,-140.87
2023-02-26T22:59:23.690Z,-140.87
2023-02-26T23:02:51.979Z,-140.87
2023-02-26T23:06:19.508Z,-140.87
2023-02-26T23:09:48.929Z,-140.87
2023-02-26T23:13:16.810Z,-140.87
2023-02-26T23:16:45.977Z,-140.87
2023-02-26T23:20:14.937Z,-140.87
2023-02-26T23:23:43.990Z,-140.87
2023-02-26T23:27:13.321Z,-140.87
2023-02-26T23:30:43.007Z,-140.87
2023-02-26T23:34:11.275Z,-140.87
2023-02-26T23:37:39.367Z,-140.87
2023-02-26T23:41:07.986Z,-140.87
2023-02-26T23:44:37.575Z,-140.87
2023-02-26T23:48:05.558Z,-140.87
2023-02-26T23:51:33.901Z,-140.87
2023-02-26T23:55:02.793Z,-140.87
2023-02-26T23:58:31.415Z,-140.87
